Time;durP1;ratioP1;P1;durP2;ratioP2;P2;SDS_P1;SDS_P2;PMS_P1;PMS_P2;Temp;Humidity;BMP_temperature;BMP_pressure;BME280_temperature;BME280_humidity;BME280_pressure;Samples;Min_cycle;Max_cycle;Signal;HPM_P1;HPM_P2
2023/12/13 00:03:04;;;;;;;3.60;2.20;;;;;;;7.71;62.87;98565.47;10472327;28;20243;-74
2023/12/13 00:08:20;;;;;;;2.53;2.33;;;;;;;8.11;62.37;98514.25;10382119;28;20739;-74
2023/12/13 00:13:28;;;;;;;2.90;2.53;;;;;;;6.93;64.11;98615.97;10399034;28;20240;-73
2023/12/13 00:18:36;;;;;;;3.40;1.93;;;;;;;8.36;61.33;98519.88;10403486;28;20311;-74
2023/12/13 00:23:47;;;;;;;4.93;2.63;;;;;;;7.80;62.60;98544.81;10402546;28;20267;-74
2023/12/13 00:28:55;;;;;;;3.10;2.17;;;;;;;8.00;62.07;98510.31;10397388;28;20232;-72
2023/12/13 00:34:03;;;;;;;2.37;2.27;;;;;;;7.95;62.23;98554.53;10400222;28;20235;-73
2023/12/13 00:39:11;;;;;;;2.53;2.30;;;;;;;7.66;63.27;98543.06;10402292;28;20715;-73
2023/12/13 00:44:19;;;;;;;3.53;2.80;;;;;;;7.21;65.75;98522.13;10417012;28;20322;-74
2023/12/13 00:49:27;;;;;;;3.10;2.60;;;;;;;6.81;64.78;98644.91;10404392;28;20371;-75
2023/12/13 00:54:35;;;;;;;2.77;2.57;;;;;;;7.65;62.62;98586.72;10405715;28;20726;-72
2023/12/13 00:59:43;;;;;;;3.40;2.60;;;;;;;7.74;62.28;98586.34;10399826;28;20232;-74
2023/12/13 01:04:57;;;;;;;2.67;2.20;;;;;;;8.01;61.64;98570.56;10429355;28;20246;-73
2023/12/13 01:10:13;;;;;;;3.93;2.67;;;;;;;7.65;63.66;98536.94;10460817;28;20674;-73
2023/12/13 01:15:22;;;;;;;2.83;2.30;;;;;;;7.61;63.51;98570.31;10447513;28;20666;-73
2023/12/13 01:20:30;;;;;;;4.30;2.27;;;;;;;7.32;64.46;98587.28;10437575;28;20710;-74
2023/12/13 01:25:38;;;;;;;3.27;2.33;;;;;;;7.91;64.09;98453.72;10479520;28;20431;-74
2023/12/13 01:30:46;;;;;;;2.93;2.30;;;;;;;7.22;63.95;98584.94;10463931;28;20234;-75
2023/12/13 01:35:54;;;;;;;3.20;2.50;;;;;;;8.24;62.85;98476.16;10450117;28;20255;-74
2023/12/13 01:41:03;;;;;;;2.40;2.30;;;;;;;7.43;63.77;98576.13;10457070;28;20232;-73
2023/12/13 01:46:19;;;;;;;3.60;2.60;;;;;;;6.52;65.98;98634.31;10471092;28;20670;-73
2023/12/13 01:51:28;;;;;;;2.90;2.70;;;;;;;6.72;65.99;98584.03;10482668;28;20321;-73
2023/12/13 01:56:40;;;;;;;3.93;2.50;;;;;;;8.76;61.50;98436.47;10474511;28;20231;-73
2023/12/13 02:01:52;;;;;;;2.30;2.20;;;;;;;8.06;63.60;98434.91;10464899;28;20234;-73
2023/12/13 02:07:08;;;;;;;2.63;2.43;;;;;;;7.94;62.21;98495.13;10471518;28;20234;-72
2023/12/13 02:12:17;;;;;;;2.30;2.20;;;;;;;8.07;61.74;98495.16;10468737;28;20231;-73
2023/12/13 02:17:31;;;;;;;2.43;2.23;;;;;;;7.17;63.34;98600.66;10476833;28;20235;-74
2023/12/13 02:22:40;;;;;;;2.70;2.50;;;;;;;7.41;63.37;98500.97;10478871;28;20282;-73
2023/12/13 02:27:48;;;;;;;3.63;2.13;;;;;;;7.61;63.58;98463.81;10466782;28;20244;-73
2023/12/13 02:32:56;;;;;;;2.33;2.20;;;;;;;8.25;61.55;98445.81;10483784;28;20276;-73
2023/12/13 02:38:04;;;;;;;2.87;2.40;;;;;;;8.04;61.41;98473.44;10471608;28;20230;-73
2023/12/13 02:43:13;;;;;;;2.60;2.40;;;;;;;8.39;60.57;98471.50;10468493;28;20733;-73
2023/12/13 02:48:21;;;;;;;2.20;2.10;;;;;;;7.79;61.90;98510.38;10454039;28;20227;-73
2023/12/13 02:53:29;;;;;;;2.33;2.13;;;;;;;8.57;61.09;98414.06;10467817;28;20987;-74
2023/12/13 02:58:37;;;;;;;3.87;2.00;;;;;;;7.96;60.95;98535.69;10459439;28;20238;-72
2023/12/13 03:03:52;;;;;;;2.30;2.10;;;;;;;7.97;60.44;98533.88;10460158;28;20292;-73
2023/12/13 03:09:07;;;;;;;4.23;1.97;;;;;;;8.35;60.75;98458.75;10474638;28;20234;-73
2023/12/13 03:14:17;;;;;;;2.00;1.90;;;;;;;7.75;62.04;98496.66;10481179;28;20252;-73
2023/12/13 03:19:25;;;;;;;4.73;2.50;;;;;;;7.95;60.94;98531.41;10456985;28;20231;-73
2023/12/13 03:24:35;;;;;;;2.33;1.97;;;;;;;9.22;58.18;98443.63;10464367;28;20550;-72
2023/12/13 03:29:46;;;;;;;2.90;2.50;;;;;;;9.33;58.22;98431.47;10453502;28;20232;-74
2023/12/13 03:34:54;;;;;;;3.57;1.90;;;;;;;8.18;60.86;98458.31;10466127;28;20252;-73
2023/12/13 03:40:03;;;;;;;2.10;2.00;;;;;;;8.40;59.81;98505.09;10455516;28;20265;-73
2023/12/13 03:45:11;;;;;;;1.90;1.80;;;;;;;9.77;57.03;98395.19;10469776;28;20255;-72
2023/12/13 03:50:20;;;;;;;2.73;2.30;;;;;;;9.23;58.71;98429.25;10480199;28;20238;-73
2023/12/13 03:55:28;;;;;;;2.20;2.00;;;;;;;9.42;58.75;98413.41;10477907;28;20872;-74
2023/12/13 04:00:39;;;;;;;3.77;2.30;;;;;;;8.51;59.53;98532.22;10481996;28;20224;-72
2023/12/13 04:05:54;;;;;;;2.33;2.23;;;;;;;8.89;59.76;98451.66;10486596;28;20319;-73
2023/12/13 04:11:09;;;;;;;2.90;2.60;;;;;;;8.52;60.94;98422.69;10475948;28;20230;-74
2023/12/13 04:16:17;;;;;;;3.00;2.80;;;;;;;7.34;63.65;98494.75;10466959;28;20540;-72
2023/12/13 04:21:26;;;;;;;5.63;2.80;;;;;;;8.62;61.42;98355.63;10479002;28;20540;-73
2023/12/13 04:26:34;;;;;;;3.63;2.80;;;;;;;9.19;59.51;98358.63;10473285;28;20544;-72
2023/12/13 04:31:42;;;;;;;2.60;2.40;;;;;;;8.76;59.95;98439.13;10470369;28;20228;-73
2023/12/13 04:36:50;;;;;;;2.80;2.60;;;;;;;8.44;60.58;98453.03;10459561;28;20260;-73
2023/12/13 04:41:58;;;;;;;2.97;2.73;;;;;;;8.71;60.20;98439.72;10483504;28;20235;-73
2023/12/13 04:47:06;;;;;;;3.43;2.80;;;;;;;7.99;63.10;98411.94;10456388;28;20699;-75
2023/12/13 04:52:21;;;;;;;4.10;3.67;;;;;;;8.48;62.16;98342.28;10459642;28;20242;-75
2023/12/13 04:57:29;;;;;;;3.60;3.10;;;;;;;9.63;58.56;98332.97;10468698;28;20239;-72
2023/12/13 05:02:39;;;;;;;3.93;2.60;;;;;;;8.47;62.15;98350.50;10467004;28;20653;-74
2023/12/13 05:07:54;;;;;;;4.10;2.93;;;;;;;6.81;67.32;98304.56;10481979;28;20239;-76
2023/12/13 05:13:02;;;;;;;2.87;2.60;;;;;;;8.45;62.00;98305.41;10482812;28;20230;-75
2023/12/13 05:18:10;;;;;;;3.57;2.70;;;;;;;7.71;63.35;98365.75;10472051;28;20235;-76
2023/12/13 05:23:18;;;;;;;4.77;2.63;;;;;;;7.49;63.75;98393.50;10474794;28;20245;-73
2023/12/13 05:28:26;;;;;;;3.23;2.87;;;;;;;9.20;60.20;98267.66;10478272;28;20231;-72
2023/12/13 05:33:38;;;;;;;2.80;2.50;;;;;;;10.00;57.40;98287.75;10472596;28;20252;-74
2023/12/13 05:38:46;;;;;;;5.53;3.50;;;;;;;9.95;56.80;98362.41;10488801;28;20315;-75
2023/12/13 05:43:54;;;;;;;14.37;9.63;;;;;;;9.76;57.88;98318.72;10474675;28;20314;-74
2023/12/13 05:49:04;;;;;;;4.93;3.83;;;;;;;9.61;57.72;98361.75;10458557;28;20233;-73
2023/12/13 05:54:13;;;;;;;3.93;2.90;;;;;;;9.64;58.15;98333.81;10459498;28;20692;-73
2023/12/13 05:59:21;;;;;;;3.17;2.70;;;;;;;7.92;61.76;98387.97;10473133;28;20232;-73
2023/12/13 06:04:29;;;;;;;3.03;2.70;;;;;;;9.29;59.02;98286.13;10475132;28;20235;-73
2023/12/13 06:09:44;;;;;;;4.17;2.60;;;;;;;8.45;59.13;98454.69;10476440;28;20275;-74
2023/12/13 06:14:52;;;;;;;4.20;2.60;;;;;;;8.37;60.60;98350.94;10479057;28;20725;-73
2023/12/13 06:20:01;;;;;;;2.40;2.20;;;;;;;8.15;60.58;98357.44;10453073;28;20265;-73
2023/12/13 06:25:09;;;;;;;4.43;2.20;;;;;;;8.42;59.62;98340.47;10480438;28;20239;-73
2023/12/13 06:30:16;;;;;;;2.97;2.40;;;;;;;7.62;61.10;98382.09;10485391;28;20242;-75
2023/12/13 06:35:24;;;;;;;2.57;2.37;;;;;;;8.27;60.34;98300.69;10471081;28;20234;-73
2023/12/13 06:40:32;;;;;;;2.93;2.50;;;;;;;8.84;59.91;98214.81;10472880;28;20240;-73
2023/12/13 06:45:40;;;;;;;4.30;2.20;;;;;;;9.04;58.21;98265.47;10480373;28;20328;-73
2023/12/13 06:50:55;;;;;;;2.73;2.53;;;;;;;9.88;56.31;98233.41;10476936;28;20246;-72
2023/12/13 06:56:04;;;;;;;1.90;1.80;;;;;;;9.58;56.37;98325.63;10463348;28;20243;-72
2023/12/13 07:01:12;;;;;;;2.83;2.50;;;;;;;8.50;59.43;98290.63;10480727;28;20234;-72
2023/12/13 07:06:21;;;;;;;2.50;2.30;;;;;;;8.00;60.23;98360.28;10487475;28;20227;-73
2023/12/13 07:11:29;;;;;;;2.77;2.57;;;;;;;8.97;59.12;98302.03;10480824;28;20244;-73
2023/12/13 07:16:44;;;;;;;3.23;2.93;;;;;;;8.19;59.82;98380.84;10482277;28;20238;-73
2023/12/13 07:21:52;;;;;;;5.07;4.50;;;;;;;8.62;59.36;98316.47;10492229;28;20233;-74
2023/12/13 07:27:01;;;;;;;5.57;4.20;;;;;;;9.19;57.22;98350.63;10464002;28;20285;-73
2023/12/13 07:32:09;;;;;;;3.33;2.77;;;;;;;7.53;61.03;98389.44;10475111;28;20300;-73
2023/12/13 07:37:18;;;;;;;2.50;2.40;;;;;;;8.80;59.39;98267.78;10473024;28;20786;-73
2023/12/13 07:42:27;;;;;;;2.77;2.57;;;;;;;9.37;57.92;98259.97;10472623;28;20238;-73
2023/12/13 07:47:46;;;;;;;3.17;2.87;;;;;;;9.01;58.48;98298.75;10468635;28;20301;-73
2023/12/13 07:53:14;;;;;;;2.97;2.77;;;;;;;8.67;57.85;98420.66;10467712;28;20267;-74
2023/12/13 07:58:22;;;;;;;3.93;3.03;;;;;;;9.14;58.39;98337.88;10479645;28;20236;-72
2023/12/13 08:03:33;;;;;;;2.70;2.50;;;;;;;8.69;57.98;98433.78;10473581;28;20242;-74
2023/12/13 08:08:48;;;;;;;3.13;2.50;;;;;;;9.28;58.04;98327.16;10411470;28;20228;-73
2023/12/13 08:13:57;;;;;;;3.93;3.10;;;;;;;9.63;58.35;98289.44;10415393;28;20228;-74
2023/12/13 08:19:05;;;;;;;3.50;2.83;;;;;;;9.79;56.81;98331.66;10389368;28;20265;-73
2023/12/13 08:24:14;;;;;;;3.40;3.10;;;;;;;9.85;56.82;98346.03;10387623;28;20596;-73
2023/12/13 08:29:21;;;;;;;3.53;3.20;;;;;;;9.34;58.15;98374.38;10396407;28;20302;-74
2023/12/13 08:34:30;;;;;;;4.37;2.90;;;;;;;10.09;55.73;98374.66;10412230;28;20275;-73
2023/12/13 08:39:38;;;;;;;5.37;3.13;;;;;;;9.34;58.43;98372.53;10408031;28;22509;-73
2023/12/13 08:44:48;;;;;;;3.83;3.10;;;;;;;8.36;60.12;98426.56;10388684;28;20783;-73
2023/12/13 08:50:03;;;;;;;4.10;3.37;;;;;;;9.26;58.45;98363.94;10396783;28;20631;-73
2023/12/13 08:55:12;;;;;;;3.33;3.03;;;;;;;11.00;55.99;98203.88;10412930;28;20239;-72
2023/12/13 09:00:20;;;;;;;4.53;3.57;;;;;;;10.86;56.11;98248.72;10412317;28;20235;-73
2023/12/13 09:05:37;;;;;;;3.53;3.23;;;;;;;10.39;56.22;98317.06;10417347;28;20243;-74
2023/12/13 09:10:51;;;;;;;3.87;3.27;;;;;;;10.74;56.28;98285.25;10384927;28;20718;-73
2023/12/13 09:16:00;;;;;;;4.70;3.50;;;;;;;11.15;54.90;98288.31;10387662;28;20744;-74
2023/12/13 09:21:08;;;;;;;4.97;4.07;;;;;;;10.58;56.04;98348.19;10394079;28;20261;-73
2023/12/13 09:26:16;;;;;;;4.50;3.83;;;;;;;9.74;58.47;98326.16;10391064;28;20232;-75
2023/12/13 09:31:24;;;;;;;9.90;8.20;;;;;;;10.26;57.88;98276.06;10383681;28;20794;-73
2023/12/13 09:36:34;;;;;;;4.13;3.57;;;;;;;10.80;57.96;98254.13;10391311;28;20628;-73
2023/12/13 09:41:57;;;;;;;3.30;3.00;;;;;;;9.19;60.09;98375.44;10386600;28;20599;-73
2023/12/13 09:47:07;;;;;;;3.73;3.30;;;;;;;10.57;58.57;98228.84;10386404;28;20299;-72
2023/12/13 09:52:19;;;;;;;4.77;3.43;;;;;;;10.12;59.53;98298.56;10390440;28;20347;-73
2023/12/13 09:57:29;;;;;;;5.50;4.27;;;;;;;9.66;60.40;98326.41;10388672;28;20241;-74
2023/12/13 10:02:37;;;;;;;5.03;4.43;;;;;;;10.25;58.38;98335.88;10379908;28;20229;-75
2023/12/13 10:08:01;;;;;;;5.27;3.30;;;;;;;11.39;58.23;98182.97;10410893;28;21640;-73
2023/12/13 10:13:10;;;;;;;6.80;3.67;;;;;;;10.77;58.09;98258.09;10439648;28;20236;-72
2023/12/13 10:18:18;;;;;;;6.80;3.27;;;;;;;9.61;58.97;98360.94;10434191;28;20235;-74
2023/12/13 10:23:27;;;;;;;6.77;5.20;;;;;;;11.19;56.65;98235.97;10429183;28;20697;-72
2023/12/13 10:28:36;;;;;;;5.87;4.23;;;;;;;10.65;57.36;98316.03;10429878;28;20813;-72
2023/12/13 10:33:45;;;;;;;4.80;3.73;;;;;;;9.36;61.16;98329.59;10428122;28;20618;-72
2023/12/13 10:38:55;;;;;;;7.93;3.40;;;;;;;9.78;61.05;98247.19;10438106;28;20606;-72
2023/12/13 10:44:11;;;;;;;5.03;3.30;;;;;;;9.40;61.30;98285.44;10433823;28;20307;-72
2023/12/13 10:49:21;;;;;;;5.60;3.67;;;;;;;8.66;62.20;98284.84;10427097;28;20630;-72
2023/12/13 10:54:31;;;;;;;3.97;3.20;;;;;;;9.66;59.86;98244.41;10433080;28;20244;-72
2023/12/13 10:59:41;;;;;;;4.03;3.57;;;;;;;8.84;61.45;98349.03;10436741;28;20351;-72
2023/12/13 11:06:23;;;;;;;4.47;3.53;;;;;;;7.68;66.42;98155.81;10161968;27;8291240;-70
2023/12/13 11:11:34;;;;;;;5.00;3.10;;;;;;;7.13;67.84;98155.13;10400374;28;20660;-72
2023/12/13 11:16:46;;;;;;;5.70;3.67;;;;;;;7.05;67.31;98216.50;10440196;28;20236;-73
2023/12/13 11:21:56;;;;;;;4.90;3.40;;;;;;;8.05;65.62;98137.56;10447028;28;20327;-73
2023/12/13 11:27:10;;;;;;;4.13;3.13;;;;;;;6.66;66.61;98279.91;10436852;28;20243;-73
2023/12/13 11:32:34;;;;;;;4.63;3.17;;;;;;;7.02;65.32;98232.84;10447257;28;20292;-73
2023/12/13 11:37:49;;;;;;;3.23;2.77;;;;;;;7.24;65.51;98169.69;10435535;28;20236;-74
2023/12/13 11:42:58;;;;;;;5.53;3.50;;;;;;;7.22;65.92;98158.41;10444805;28;20581;-71
2023/12/13 11:48:07;;;;;;;5.00;3.77;;;;;;;8.25;63.15;98118.03;10428755;28;20671;-72
2023/12/13 11:53:15;;;;;;;4.13;3.27;;;;;;;8.07;63.43;98164.81;10438918;28;20320;-72
2023/12/13 11:58:28;;;;;;;4.20;3.20;;;;;;;7.73;63.66;98213.78;10442541;28;20630;-70
2023/12/13 12:03:43;;;;;;;2.47;2.27;;;;;;;7.13;64.53;98249.06;10452270;28;20442;-71
2023/12/13 12:08:52;;;;;;;3.17;2.83;;;;;;;7.54;63.39;98196.75;10458063;28;20767;-71
2023/12/13 12:14:00;;;;;;;3.30;3.00;;;;;;;7.98;63.64;98147.38;10443210;28;20232;-71
2023/12/13 12:19:10;;;;;;;5.53;2.73;;;;;;;7.97;64.97;98097.81;10443958;28;20315;-71
2023/12/13 12:24:18;;;;;;;3.17;2.87;;;;;;;7.95;64.62;98123.84;10446635;28;20228;-71
2023/12/13 12:29:30;;;;;;;6.30;3.70;;;;;;;7.53;63.20;98235.06;10432351;28;20331;-70
2023/12/13 12:34:40;;;;;;;3.20;2.60;;;;;;;7.61;63.55;98192.25;10441045;28;20263;-69
2023/12/13 12:39:48;;;;;;;4.07;3.30;;;;;;;8.04;61.55;98244.34;10452335;28;20699;-70
2023/12/13 12:44:57;;;;;;;3.30;3.00;;;;;;;7.55;62.67;98214.38;10441835;28;20228;-70
2023/12/13 12:50:06;;;;;;;3.33;3.03;;;;;;;8.16;61.17;98183.25;10445729;28;20212;-70
2023/12/13 12:55:14;;;;;;;2.90;2.40;;;;;;;7.44;62.42;98217.63;10452195;28;20323;-70
2023/12/13 13:00:22;;;;;;;6.47;2.50;;;;;;;7.17;63.54;98207.75;10440806;28;20249;-70
2023/12/13 13:05:36;;;;;;;3.63;3.10;;;;;;;7.95;62.49;98141.66;10425877;28;20715;-70
2023/12/13 13:10:45;;;;;;;3.53;2.73;;;;;;;8.15;62.31;98133.63;10450195;28;20223;-70
2023/12/13 13:15:53;;;;;;;4.57;2.70;;;;;;;6.97;63.82;98271.50;10437135;28;20347;-70
2023/12/13 13:21:08;;;;;;;5.73;3.73;;;;;;;7.84;63.83;98137.75;10443516;28;20228;-69
2023/12/13 13:26:16;;;;;;;5.33;3.20;;;;;;;8.29;61.88;98178.69;10442226;28;20283;-74
2023/12/13 13:31:24;;;;;;;4.47;2.73;;;;;;;7.87;62.83;98190.66;10443754;28;20266;-74
2023/12/13 13:36:32;;;;;;;3.57;2.30;;;;;;;6.87;65.77;98212.56;10445533;28;20733;-73
2023/12/13 13:41:41;;;;;;;5.00;2.93;;;;;;;7.68;63.23;98177.09;10441746;28;20261;-74
2023/12/13 13:46:50;;;;;;;2.93;2.30;;;;;;;7.25;63.55;98238.66;10431539;28;20238;-74
2023/12/13 13:51:59;;;;;;;4.37;2.80;;;;;;;7.30;63.09;98206.13;10444795;28;20326;-74
2023/12/13 13:57:08;;;;;;;2.80;2.60;;;;;;;7.99;61.21;98223.63;10430834;28;20703;-74
2023/12/13 14:02:32;;;;;;;3.23;2.93;;;;;;;8.10;60.57;98231.00;10441295;28;20805;-74
2023/12/13 14:07:40;;;;;;;3.10;2.90;;;;;;;7.84;61.70;98213.19;10447128;28;20231;-74
2023/12/13 14:12:48;;;;;;;2.37;2.17;;;;;;;8.18;60.32;98173.19;10437459;28;20786;-73
2023/12/13 14:17:56;;;;;;;2.93;2.73;;;;;;;8.36;59.36;98218.66;10421957;28;20230;-74
2023/12/13 14:23:08;;;;;;;2.97;2.60;;;;;;;9.44;57.99;98139.00;10436350;28;20225;-74
2023/12/13 14:28:16;;;;;;;3.97;3.10;;;;;;;9.65;57.38;98165.34;10439670;28;20232;-74
2023/12/13 14:33:25;;;;;;;3.00;2.70;;;;;;;10.17;55.84;98205.19;10437927;28;20232;-73
2023/12/13 14:38:33;;;;;;;2.83;2.60;;;;;;;8.84;57.49;98333.03;10421584;28;20247;-75
2023/12/13 14:43:42;;;;;;;4.80;3.60;;;;;;;9.58;57.61;98250.00;10438415;28;20496;-73
2023/12/13 14:48:51;;;;;;;7.50;4.30;;;;;;;9.03;58.46;98287.88;10440721;28;20257;-74
2023/12/13 14:54:00;;;;;;;4.37;3.97;;;;;;;8.58;59.55;98298.41;10422594;28;20255;-74
2023/12/13 14:59:09;;;;;;;6.47;4.30;;;;;;;8.90;58.20;98322.59;10436106;28;20231;-72
2023/12/13 15:04:24;;;;;;;5.97;4.03;;;;;;;9.81;56.40;98256.66;10440591;28;20268;-73
2023/12/13 15:09:32;;;;;;;4.00;3.23;;;;;;;8.74;58.68;98326.47;10425849;28;20231;-73
2023/12/13 15:14:41;;;;;;;4.00;3.13;;;;;;;9.50;57.74;98272.47;10445229;28;20725;-74
2023/12/13 15:19:49;;;;;;;4.70;3.10;;;;;;;9.03;57.50;98352.72;10439954;28;20671;-73
2023/12/13 15:24:57;;;;;;;5.23;4.30;;;;;;;8.05;61.47;98262.78;10448335;28;20236;-74
2023/12/13 15:30:14;;;;;;;5.90;4.10;;;;;;;7.33;62.55;98325.47;10444865;28;20318;-74
2023/12/13 15:35:29;;;;;;;10.93;7.13;;;;;;;7.62;61.54;98332.31;10439003;28;20236;-79
2023/12/13 15:40:37;;;;;;;7.30;4.77;;;;;;;7.73;62.05;98269.69;10416847;28;20315;-73
2023/12/13 15:45:45;;;;;;;6.27;4.00;;;;;;;7.14;62.90;98349.13;10435406;28;20236;-76
2023/12/13 15:50:53;;;;;;;5.00;4.50;;;;;;;6.50;64.56;98386.50;10449014;28;20228;-74
2023/12/13 15:56:01;;;;;;;5.73;3.57;;;;;;;5.93;67.23;98365.16;10430464;28;20238;-74
2023/12/13 16:01:10;;;;;;;4.23;3.70;;;;;;;7.71;63.27;98221.13;10447967;28;20347;-74
2023/12/13 16:06:25;;;;;;;4.13;3.73;;;;;;;7.46;63.21;98293.59;10410580;28;20719;-72
2023/12/13 16:11:33;;;;;;;8.37;4.43;;;;;;;7.91;62.74;98211.34;10387724;28;20309;-72
2023/12/13 16:16:41;;;;;;;7.47;4.50;;;;;;;6.86;64.11;98316.47;10396733;28;20236;-75
2023/12/13 16:21:49;;;;;;;4.17;3.87;;;;;;;7.04;64.82;98214.84;10402867;28;20236;-73
2023/12/13 16:26:58;;;;;;;8.07;3.83;;;;;;;6.96;63.64;98308.94;10398337;28;20278;-74
2023/12/13 16:32:06;;;;;;;5.30;3.97;;;;;;;8.04;60.97;98308.28;10403442;28;20232;-74
2023/12/13 16:37:17;;;;;;;3.77;3.47;;;;;;;8.40;59.82;98278.53;10395966;28;20255;-74
2023/12/13 16:42:25;;;;;;;4.63;3.57;;;;;;;7.45;61.87;98328.38;10400586;28;20860;-72
2023/12/13 16:47:34;;;;;;;5.20;3.70;;;;;;;6.58;65.37;98303.97;10400613;28;20235;-73
2023/12/13 16:52:41;;;;;;;5.30;4.80;;;;;;;6.72;64.80;98318.19;10391624;28;20228;-72
2023/12/13 16:57:49;;;;;;;5.07;4.33;;;;;;;7.15;63.20;98291.41;10403730;28;20252;-74
2023/12/13 17:03:04;;;;;;;5.93;5.20;;;;;;;8.02;61.66;98257.84;10415743;28;20231;-74
2023/12/13 17:08:19;;;;;;;5.10;4.57;;;;;;;7.15;62.00;98389.84;10447115;28;20313;-74
2023/12/13 17:13:28;;;;;;;5.60;3.40;;;;;;;6.19;65.99;98342.50;10442506;28;20232;-72
2023/12/13 17:18:36;;;;;;;3.70;3.40;;;;;;;6.41;64.25;98389.31;10428287;28;20255;-73
2023/12/13 17:23:51;;;;;;;3.87;3.43;;;;;;;6.88;63.63;98330.38;10442681;28;20231;-73
2023/12/13 17:28:59;;;;;;;3.63;3.33;;;;;;;6.87;63.62;98318.06;10442275;28;20288;-72
2023/12/13 17:34:07;;;;;;;3.60;3.10;;;;;;;7.75;61.85;98283.63;10450714;28;20228;-72
2023/12/13 17:39:15;;;;;;;4.87;3.77;;;;;;;7.28;61.71;98389.94;10439323;28;20719;-73
2023/12/13 17:44:23;;;;;;;3.23;2.93;;;;;;;8.74;58.94;98300.63;10444232;28;20229;-71
2023/12/13 17:49:32;;;;;;;3.53;3.23;;;;;;;7.75;61.31;98382.16;10451638;28;20260;-72
2023/12/13 17:54:40;;;;;;;2.97;2.77;;;;;;;7.63;60.50;98445.78;10434551;28;20248;-75
2023/12/13 17:59:49;;;;;;;4.37;3.73;;;;;;;7.62;60.83;98438.81;10426855;28;20311;-78
2023/12/13 18:05:10;;;;;;;6.23;4.17;;;;;;;7.71;61.00;98418.16;10407431;28;20240;-71
2023/12/13 18:10:20;;;;;;;7.27;6.17;;;;;;;7.66;60.60;98460.53;10399355;28;20240;-75
2023/12/13 18:15:28;;;;;;;9.50;7.17;;;;;;;6.99;62.94;98452.97;10393781;28;20244;-71
2023/12/13 18:20:36;;;;;;;7.33;5.27;;;;;;;7.68;60.31;98491.28;10356744;28;20232;-70
2023/12/13 18:25:47;;;;;;;4.67;3.83;;;;;;;6.84;62.39;98529.38;10397212;28;20228;-71
2023/12/13 18:30:54;;;;;;;4.13;3.73;;;;;;;6.65;63.10;98535.28;10399549;28;20225;-71
2023/12/13 18:36:03;;;;;;;5.33;4.03;;;;;;;7.01;62.27;98523.78;10371862;28;20233;-71
2023/12/13 18:41:11;;;;;;;4.90;3.10;;;;;;;7.31;62.40;98450.75;10363055;28;20256;-72
2023/12/13 18:46:19;;;;;;;4.83;2.90;;;;;;;6.46;63.95;98518.94;10406775;28;20596;-72
2023/12/13 18:51:27;;;;;;;3.23;2.50;;;;;;;5.75;67.18;98487.66;10407906;28;20314;-74
2023/12/13 18:56:35;;;;;;;4.57;2.67;;;;;;;5.97;65.96;98527.56;10401253;28;20236;-74
2023/12/13 19:01:44;;;;;;;3.03;2.70;;;;;;;5.75;66.38;98538.09;10406073;28;20327;-74
2023/12/13 19:06:59;;;;;;;2.97;2.70;;;;;;;5.94;66.08;98498.72;10427987;28;20231;-72
2023/12/13 19:12:08;;;;;;;4.73;4.30;;;;;;;6.59;64.96;98426.03;10439823;28;20278;-74
2023/12/13 19:17:16;;;;;;;3.10;2.87;;;;;;;6.78;63.93;98443.22;10442825;28;20983;-74
2023/12/13 19:22:24;;;;;;;3.00;2.80;;;;;;;6.22;64.68;98544.03;10432547;28;20239;-74
2023/12/13 19:27:31;;;;;;;3.97;3.60;;;;;;;6.81;63.69;98460.63;10418283;28;20232;-73
2023/12/13 19:32:40;;;;;;;3.40;3.20;;;;;;;5.76;66.35;98515.88;10431454;28;20256;-70
2023/12/13 19:37:54;;;;;;;4.10;3.70;;;;;;;5.94;64.85;98595.16;10417317;28;20320;-71
2023/12/13 19:43:09;;;;;;;4.30;3.77;;;;;;;6.26;64.63;98524.03;10438504;28;20655;-71
2023/12/13 19:48:17;;;;;;;4.77;3.70;;;;;;;5.83;66.06;98523.94;10441746;28;20704;-71
2023/12/13 19:53:26;;;;;;;3.80;3.50;;;;;;;5.74;66.80;98514.41;10432227;28;20227;-72
2023/12/13 19:58:35;;;;;;;3.60;3.20;;;;;;;6.09;65.16;98528.72;10446759;28;20321;-72
2023/12/13 20:03:49;;;;;;;3.97;3.67;;;;;;;5.77;65.18;98593.66;10452211;27;20306;-71
2023/12/13 20:09:04;;;;;;;3.53;3.33;;;;;;;6.53;63.10;98572.16;10446700;28;20227;-71
2023/12/13 20:14:14;;;;;;;3.80;3.40;;;;;;;5.78;64.85;98643.13;10406721;28;20231;-72
2023/12/13 20:19:22;;;;;;;4.60;4.20;;;;;;;5.95;64.57;98639.28;10435207;28;20230;-70
2023/12/13 20:24:29;;;;;;;4.53;4.00;;;;;;;6.83;62.86;98540.19;10443389;28;20243;-72
2023/12/13 20:29:39;;;;;;;4.57;4.17;;;;;;;6.33;63.39;98630.38;10448247;28;20536;-73
2023/12/13 20:34:47;;;;;;;5.27;4.03;;;;;;;6.43;63.69;98607.00;10444821;28;20242;-73
2023/12/13 20:39:56;;;;;;;4.07;3.67;;;;;;;6.48;64.38;98537.34;10443769;28;20230;-72
2023/12/13 20:45:04;;;;;;;4.50;3.50;;;;;;;6.50;63.13;98602.59;10438112;28;20731;-72
2023/12/13 20:50:13;;;;;;;4.23;3.83;;;;;;;6.35;64.13;98569.94;10444568;28;20231;-74
2023/12/13 20:55:24;;;;;;;5.07;4.13;;;;;;;6.99;62.94;98543.41;10434620;28;20669;-72
2023/12/13 21:00:36;;;;;;;3.83;3.50;;;;;;;5.12;66.76;98691.38;10440032;28;20224;-72
2023/12/13 21:05:50;;;;;;;4.00;3.70;;;;;;;5.59;66.54;98604.66;10437861;28;20286;-71
2023/12/13 21:10:59;;;;;;;5.10;3.83;;;;;;;6.44;64.31;98574.13;10445912;28;20233;-71
2023/12/13 21:16:07;;;;;;;5.67;4.47;;;;;;;5.41;65.92;98680.03;10439375;28;20240;-70
2023/12/13 21:21:16;;;;;;;4.50;4.10;;;;;;;6.12;65.14;98584.16;10440189;28;20267;-69
2023/12/13 21:26:28;;;;;;;5.40;4.90;;;;;;;6.50;64.12;98560.09;10442114;28;20646;-70
2023/12/13 21:31:38;;;;;;;4.50;4.00;;;;;;;5.95;65.30;98627.84;10440970;28;20311;-72
2023/12/13 21:36:46;;;;;;;6.27;4.50;;;;;;;5.69;66.71;98607.88;10439709;28;20235;-69
2023/12/13 21:41:54;;;;;;;4.40;4.00;;;;;;;5.16;66.31;98743.03;10437296;28;20840;-70
2023/12/13 21:47:02;;;;;;;4.97;4.47;;;;;;;6.50;63.75;98588.47;10438328;28;20255;-71
2023/12/13 21:52:10;;;;;;;5.63;4.83;;;;;;;5.83;64.66;98717.75;10440807;28;20237;-71
2023/12/13 21:57:18;;;;;;;5.97;4.60;;;;;;;6.55;63.06;98690.59;10441298;28;20298;-69
2023/12/13 22:02:26;;;;;;;6.17;4.80;;;;;;;7.71;61.12;98610.72;10441588;28;20232;-70
2023/12/13 22:07:41;;;;;;;6.43;4.47;;;;;;;6.73;63.20;98665.44;10401930;28;20296;-70
2023/12/13 22:12:50;;;;;;;5.97;5.37;;;;;;;7.57;59.94;98742.09;10398400;28;20235;-70
2023/12/13 22:17:58;;;;;;;6.07;5.27;;;;;;;7.07;59.56;98869.69;10405221;28;20236;-69
2023/12/13 22:23:07;;;;;;;6.27;4.90;;;;;;;6.04;63.52;98839.19;10390555;28;20246;-70
2023/12/13 22:28:15;;;;;;;9.73;5.90;;;;;;;6.95;61.66;98765.59;10397932;28;20332;-69
2023/12/13 22:33:23;;;;;;;10.33;5.60;;;;;;;7.37;60.48;98776.47;10397187;28;20224;-69
2023/12/13 22:38:37;;;;;;;7.37;5.90;;;;;;;7.03;62.07;98775.28;10392600;28;20718;-70
2023/12/13 22:43:46;;;;;;;9.60;6.40;;;;;;;7.30;61.56;98738.34;10399038;28;20239;-70
2023/12/13 22:48:54;;;;;;;11.03;6.77;;;;;;;7.10;60.76;98847.19;10387897;28;20279;-71
2023/12/13 22:54:02;;;;;;;6.83;6.10;;;;;;;6.51;62.37;98842.63;10397154;28;20609;-70
2023/12/13 22:59:10;;;;;;;7.37;6.03;;;;;;;7.42;61.09;98778.59;10394638;28;20231;-69
2023/12/13 23:04:24;;;;;;;8.17;6.30;;;;;;;7.53;60.47;98808.19;10397100;28;20297;-70
2023/12/13 23:09:46;;;;;;;6.03;5.33;;;;;;;5.16;65.72;98973.78;10401659;28;20707;-70
2023/12/13 23:14:55;;;;;;;6.23;5.63;;;;;;;6.47;63.98;98801.50;10392074;28;20314;-71
2023/12/13 23:20:03;;;;;;;9.43;5.70;;;;;;;6.36;63.53;98854.06;10405883;28;20215;-70
2023/12/13 23:25:12;;;;;;;7.40;6.60;;;;;;;7.34;62.11;98743.09;10402233;28;20741;-69
2023/12/13 23:30:20;;;;;;;8.57;6.67;;;;;;;6.22;63.43;98919.41;10402311;28;20232;-69
2023/12/13 23:35:28;;;;;;;8.27;6.50;;;;;;;6.13;63.85;98915.19;10389462;28;20829;-69
2023/12/13 23:40:36;;;;;;;9.07;6.30;;;;;;;7.32;61.51;98793.00;10395274;28;20324;-70
2023/12/13 23:45:44;;;;;;;9.53;7.90;;;;;;;5.78;64.73;98945.78;10395486;28;20264;-69
2023/12/13 23:50:59;;;;;;;10.17;8.03;;;;;;;7.48;60.77;98821.25;10384858;28;20715;-70
2023/12/13 23:56:22;;;;;;;9.97;7.97;;;;;;;7.54;61.53;98804.53;10376894;28;24249;-70
